Narborough, United Kingdom
Current Conditions -  °F | °C
As of 7:20 PM on Thursday 18 Dec 2014 (Local Time) from EGBE Reporting Station
Broken Clouds Broken Clouds  
Wind Chill: 55°   Ceiling: 2200
Heat Index: 55°   Visibility: 6mi
Dew Point: 52°   Wind: 22mph
Humidity: 88%   Direction: 240°WSW
Pressure: 29.74"   Gusts: NA
Location:  52.57°N, 1.2°W
Report Text: EGBE 181920Z 24019KT 9999 FEW015 BKN022 13/11 Q1007
Loading
Personal Weather Stations






























Interactive Weather Map New forecast layout! Learn more

10-Day Weather Forecast

Advertisements
Track Severe Weather on mobile